createdAt,value
2022-11-25T00:00:25.577Z,0
2022-11-25T00:01:25.805Z,0
2022-11-25T00:02:26.460Z,0
2022-11-25T00:03:25.844Z,0
2022-11-25T00:04:25.343Z,0
2022-11-25T00:05:25.252Z,0
2022-11-25T00:06:25.215Z,0
2022-11-25T00:07:25.815Z,0
2022-11-25T00:08:25.178Z,0
2022-11-25T00:09:25.162Z,0
2022-11-25T00:10:25.434Z,0
2022-11-25T00:11:25.427Z,0
2022-11-25T00:12:25.618Z,0
2022-11-25T00:13:30.985Z,0
2022-11-25T00:14:25.351Z,0
2022-11-25T00:15:25.073Z,0
2022-11-25T00:16:25.327Z,0
2022-11-25T00:17:25.553Z,0
2022-11-25T00:18:25.610Z,0
2022-11-25T00:19:25.537Z,0
2022-11-25T00:20:24.736Z,0
2022-11-25T00:21:25.518Z,0
2022-11-25T00:22:24.695Z,0
2022-11-25T00:23:26.939Z,0
2022-11-25T00:24:24.917Z,0
2022-11-25T00:25:25.424Z,0
2022-11-25T00:26:25.146Z,0
2022-11-25T00:27:25.390Z,0
2022-11-25T00:28:25.105Z,0
2022-11-25T00:29:25.092Z,0
2022-11-25T00:30:25.103Z,0
2022-11-25T00:31:25.260Z,0
2022-11-25T00:32:24.784Z,0
2022-11-25T00:33:25.281Z,0
2022-11-25T00:34:25.077Z,0
2022-11-25T00:35:25.409Z,0
2022-11-25T00:36:24.720Z,0
2022-11-25T00:37:25.240Z,0
2022-11-25T00:38:24.935Z,0
2022-11-25T00:39:25.176Z,0
2022-11-25T00:40:24.650Z,0
2022-11-25T00:41:24.634Z,0
2022-11-25T00:42:24.612Z,0
2022-11-25T00:43:25.103Z,0
2022-11-25T00:44:24.601Z,0
2022-11-25T00:45:24.617Z,0
2022-11-25T00:46:24.997Z,0
2022-11-25T00:47:25.042Z,0
2022-11-25T00:48:24.765Z,0
2022-11-25T00:49:24.234Z,0
2022-11-25T00:50:25.072Z,0
2022-11-25T00:51:24.204Z,0
2022-11-25T00:52:24.467Z,0
2022-11-25T00:53:24.702Z,0
2022-11-25T00:54:24.666Z,0
2022-11-25T00:55:24.391Z,0
2022-11-25T00:56:24.629Z,0
2022-11-25T00:57:24.372Z,0
2022-11-25T00:58:24.340Z,0
2022-11-25T00:59:24.317Z,0
2022-11-25T01:00:24.566Z,0
2022-11-25T01:01:24.665Z,0
2022-11-25T01:02:24.821Z,0
2022-11-25T01:03:24.763Z,0
2022-11-25T01:04:24.763Z,0
2022-11-25T01:05:24.223Z,0
2022-11-25T01:06:24.780Z,0
2022-11-25T01:07:24.767Z,0
2022-11-25T01:08:24.675Z,0
2022-11-25T01:09:24.167Z,0
2022-11-25T01:10:24.392Z,0
2022-11-25T01:11:24.365Z,0
2022-11-25T01:12:24.351Z,0
2022-11-25T01:13:24.086Z,0
2022-11-25T01:14:24.052Z,0
2022-11-25T01:15:24.043Z,0
2022-11-25T01:16:24.604Z,0
2022-11-25T01:17:24.251Z,0
2022-11-25T01:18:23.987Z,0
2022-11-25T01:19:24.294Z,0
2022-11-25T01:20:23.953Z,0
2022-11-25T01:21:23.939Z,0
2022-11-25T01:22:24.501Z,0
2022-11-25T01:23:24.171Z,0
2022-11-25T01:24:26.473Z,0
2022-11-25T01:25:24.137Z,0
2022-11-25T01:26:24.102Z,0
2022-11-25T01:27:24.082Z,0
2022-11-25T01:28:23.557Z,0
2022-11-25T01:29:24.051Z,0
2022-11-25T01:30:24.291Z,0
2022-11-25T01:31:24.310Z,0
2022-11-25T01:32:23.990Z,0
2022-11-25T01:33:24.235Z,0
2022-11-25T01:34:23.958Z,0
2022-11-25T01:35:23.937Z,0
2022-11-25T01:36:24.209Z,0
2022-11-25T01:37:23.907Z,0
2022-11-25T01:38:24.232Z,0
2022-11-25T01:39:31.888Z,0
2022-11-25T01:40:23.874Z,0
2022-11-25T01:41:23.862Z,0
2022-11-25T01:42:23.584Z,0
2022-11-25T01:43:23.544Z,0
2022-11-25T01:44:23.806Z,0
2022-11-25T01:45:26.661Z,0
2022-11-25T01:46:24.363Z,0
2022-11-25T01:47:23.733Z,0
2022-11-25T01:48:23.706Z,0
2022-11-25T01:49:23.449Z,0
2022-11-25T01:50:23.665Z,0
2022-11-25T01:51:55.469Z,0
2022-11-25T01:52:23.643Z,0
2022-11-25T01:53:23.615Z,0
2022-11-25T01:54:23.677Z,0
2022-11-25T01:55:23.080Z,0
2022-11-25T01:56:23.813Z,0
2022-11-25T01:57:23.832Z,0
2022-11-25T01:58:23.788Z,0
2022-11-25T01:59:23.513Z,0
2022-11-25T02:00:23.493Z,0
2022-11-25T02:01:23.492Z,0
2022-11-25T02:02:23.813Z,0
2022-11-25T02:03:22.926Z,0
2022-11-25T02:04:23.415Z,0
2022-11-25T02:05:23.402Z,0
2022-11-25T02:06:23.379Z,0
2022-11-25T02:07:23.653Z,0
2022-11-25T02:08:23.600Z,0
2022-11-25T02:09:23.331Z,0
2022-11-25T02:10:23.637Z,0
2022-11-25T02:11:23.291Z,0
2022-11-25T02:12:23.529Z,0
2022-11-25T02:13:23.532Z,0
2022-11-25T02:14:23.500Z,0
2022-11-25T02:15:23.257Z,0
2022-11-25T02:16:23.259Z,0
2022-11-25T02:17:22.933Z,0
2022-11-25T02:18:23.162Z,0
2022-11-25T02:19:22.898Z,0
2022-11-25T02:20:22.880Z,0
2022-11-25T02:21:22.858Z,0
2022-11-25T02:22:23.087Z,0
2022-11-25T02:23:23.336Z,0
2022-11-25T02:24:23.069Z,0
2022-11-25T02:25:23.045Z,0
2022-11-25T02:26:23.104Z,0
2022-11-25T02:27:22.752Z,0
2022-11-25T02:28:23.005Z,0
2022-11-25T02:29:23.255Z,0
2022-11-25T02:30:22.965Z,0
2022-11-25T02:31:22.930Z,0
2022-11-25T02:32:22.941Z,0
2022-11-25T02:33:22.892Z,0
2022-11-25T02:34:22.873Z,0
2022-11-25T02:35:22.857Z,0
2022-11-25T02:36:23.099Z,0
2022-11-25T02:37:22.816Z,0
2022-11-25T02:38:23.056Z,0
2022-11-25T02:39:23.040Z,0
2022-11-25T02:40:22.765Z,0
2022-11-25T02:41:22.845Z,0
2022-11-25T02:42:23.077Z,0
2022-11-25T02:43:22.991Z,0
2022-11-25T02:44:22.692Z,0
2022-11-25T02:45:22.985Z,0
2022-11-25T02:46:28.902Z,0
2022-11-25T02:47:22.385Z,0
2022-11-25T02:48:53.156Z,0
2022-11-25T02:49:22.593Z,0
2022-11-25T02:50:22.588Z,0
2022-11-25T02:51:22.560Z,0
2022-11-25T02:52:22.553Z,0
2022-11-25T02:53:22.275Z,0
2022-11-25T02:54:22.001Z,0
2022-11-25T02:55:22.244Z,0
2022-11-25T02:56:22.475Z,0
2022-11-25T02:57:22.235Z,0
2022-11-25T02:58:22.766Z,0
2022-11-25T02:59:22.884Z,0
2022-11-25T03:00:22.648Z,0
2022-11-25T03:01:23.055Z,0
2022-11-25T03:02:23.104Z,0
2022-11-25T03:03:22.586Z,0
2022-11-25T03:04:22.834Z,0
2022-11-25T03:05:22.567Z,0
2022-11-25T03:06:22.649Z,0
2022-11-25T03:07:22.528Z,0
2022-11-25T03:08:22.497Z,0
2022-11-25T03:09:22.231Z,0
2022-11-25T03:10:22.467Z,0
2022-11-25T03:11:22.446Z,0
2022-11-25T03:12:22.424Z,0
2022-11-25T03:13:22.407Z,0
2022-11-25T03:14:22.470Z,0
2022-11-25T03:15:22.372Z,0
2022-11-25T03:16:22.703Z,0
2022-11-25T03:17:22.368Z,0
2022-11-25T03:18:22.560Z,0
2022-11-25T03:19:22.033Z,0
2022-11-25T03:20:22.544Z,0
2022-11-25T03:21:22.118Z,0
2022-11-25T03:22:22.487Z,0
2022-11-25T03:23:21.966Z,0
2022-11-25T03:24:21.941Z,0
2022-11-25T03:25:22.187Z,0
2022-11-25T03:26:22.006Z,0
2022-11-25T03:27:21.887Z,0
2022-11-25T03:28:21.639Z,0
2022-11-25T03:29:22.121Z,0
2022-11-25T03:30:22.189Z,0
2022-11-25T03:31:22.575Z,0
2022-11-25T03:32:22.224Z,0
2022-11-25T03:33:22.056Z,0
2022-11-25T03:50:28.674Z,0
2022-11-25T03:51:28.305Z,0
2022-11-25T03:52:28.052Z,0
2022-11-25T03:53:28.268Z,0
2022-11-25T03:54:27.984Z,0
2022-11-25T03:55:28.100Z,0
2022-11-25T03:56:28.199Z,0
2022-11-25T03:57:28.181Z,0
2022-11-25T03:58:28.157Z,0
2022-11-25T03:59:27.887Z,0
2022-11-25T04:00:28.113Z,0
2022-11-25T04:01:28.495Z,0
2022-11-25T04:02:28.383Z,0
2022-11-25T04:03:27.824Z,0
2022-11-25T04:04:28.292Z,0
2022-11-25T04:05:28.169Z,0
2022-11-25T04:06:28.359Z,0
2022-11-25T04:07:27.998Z,0
2022-11-25T04:08:28.212Z,0
2022-11-25T04:09:27.959Z,0
2022-11-25T04:10:27.923Z,0
2022-11-25T04:11:27.952Z,0
2022-11-25T04:12:27.645Z,0
2022-11-25T04:13:27.611Z,0
2022-11-25T04:14:27.335Z,0
2022-11-25T04:15:28.188Z,0
2022-11-25T04:16:28.107Z,0
2022-11-25T04:17:28.043Z,0
2022-11-25T04:18:27.517Z,0
2022-11-25T04:19:27.507Z,0
2022-11-25T04:20:27.728Z,0
2022-11-25T04:21:27.468Z,0
2022-11-25T04:22:28.138Z,0
2022-11-25T04:23:27.933Z,0
2022-11-25T04:24:27.653Z,0
2022-11-25T04:25:27.897Z,0
2022-11-25T04:26:27.642Z,0
2022-11-25T04:27:27.706Z,0
2022-11-25T04:28:27.333Z,0
2022-11-25T04:29:27.824Z,0
2022-11-25T04:30:27.979Z,0
2022-11-25T04:31:27.615Z,0
2022-11-25T04:32:27.429Z,0
2022-11-25T04:33:27.235Z,0
2022-11-25T04:34:26.950Z,0
2022-11-25T04:35:27.189Z,0
2022-11-25T04:36:27.432Z,0
2022-11-25T04:37:27.156Z,0
2022-11-25T04:38:27.752Z,0
2022-11-25T04:39:27.408Z,0
2022-11-25T04:40:26.987Z,0
2022-11-25T04:41:27.078Z,0
2022-11-25T04:42:27.058Z,0
2022-11-25T04:43:27.039Z,0
2022-11-25T04:44:27.537Z,0
2022-11-25T04:45:58.930Z,0
2022-11-25T04:46:27.313Z,0
2022-11-25T04:47:27.054Z,0
2022-11-25T04:48:27.204Z,0
2022-11-25T04:49:27.183Z,0
2022-11-25T04:50:27.568Z,0
2022-11-25T04:51:26.886Z,0
2022-11-25T04:52:27.131Z,0
2022-11-25T04:53:27.111Z,0
2022-11-25T04:54:27.443Z,0
2022-11-25T04:55:27.072Z,0
2022-11-25T04:56:26.803Z,0
2022-11-25T04:57:27.039Z,0
2022-11-25T04:58:26.763Z,0
2022-11-25T04:59:26.995Z,0
2022-11-25T05:00:27.082Z,0
2022-11-25T05:01:27.360Z,0
2022-11-25T05:02:27.572Z,0
2022-11-25T05:03:26.929Z,0
2022-11-25T05:04:27.162Z,0
2022-11-25T05:05:27.040Z,0
2022-11-25T05:06:26.623Z,0
2022-11-25T05:07:27.278Z,0
2022-11-25T05:08:26.315Z,0
2022-11-25T05:09:27.065Z,0
2022-11-25T05:10:27.152Z,0
2022-11-25T05:11:26.801Z,0
2022-11-25T05:12:27.043Z,0
2022-11-25T05:13:26.734Z,0
2022-11-25T05:14:26.204Z,0
2022-11-25T05:15:26.800Z,0
2022-11-25T05:16:26.862Z,0
2022-11-25T05:17:26.676Z,0
2022-11-25T05:18:26.894Z,0
2022-11-25T05:19:26.622Z,0
2022-11-25T05:20:26.597Z,0
2022-11-25T05:21:26.072Z,0
2022-11-25T05:22:26.622Z,0
2022-11-25T05:23:26.735Z,0
2022-11-25T05:24:26.527Z,0
2022-11-25T05:25:26.251Z,0
2022-11-25T05:26:26.848Z,0
2022-11-25T05:27:26.216Z,0
2022-11-25T05:28:26.704Z,0
2022-11-25T05:29:25.920Z,0
2022-11-25T05:30:26.556Z,0
2022-11-25T05:31:26.926Z,0
2022-11-25T05:32:26.716Z,0
2022-11-25T05:33:26.941Z,0
2022-11-25T05:34:26.409Z,0
2022-11-25T05:35:26.650Z,0
2022-11-25T05:36:26.628Z,0
2022-11-25T05:37:31.317Z,0
2022-11-25T05:38:26.340Z,0
2022-11-25T05:39:26.061Z,0
2022-11-25T05:40:26.823Z,0
2022-11-25T05:41:26.024Z,0
2022-11-25T05:42:26.866Z,0
2022-11-25T05:43:26.761Z,0
2022-11-25T05:44:29.777Z,0
2022-11-25T05:45:26.717Z,0
2022-11-25T05:46:26.828Z,0
2022-11-25T05:47:26.169Z,0
2022-11-25T05:48:25.894Z,0
2022-11-25T05:49:26.388Z,0
2022-11-25T05:50:26.363Z,0
2022-11-25T05:51:26.357Z,0
2022-11-25T05:52:26.589Z,0
2022-11-25T05:53:26.315Z,0
2022-11-25T05:54:26.295Z,0
2022-11-25T05:55:26.279Z,0
2022-11-25T05:56:26.510Z,0
2022-11-25T05:57:25.993Z,0
2022-11-25T05:58:26.576Z,0
2022-11-25T05:59:25.948Z,0
2022-11-25T06:00:33.204Z,0
2022-11-25T06:01:26.191Z,0
2022-11-25T06:02:26.455Z,0
2022-11-25T06:03:26.789Z,0
2022-11-25T06:04:25.856Z,0
2022-11-25T06:05:25.835Z,0
2022-11-25T06:06:26.078Z,4
2022-11-25T06:07:26.116Z,0
2022-11-25T06:08:25.793Z,0
2022-11-25T06:09:25.757Z,4
2022-11-25T06:10:26.252Z,0
2022-11-25T06:11:25.766Z,4
2022-11-25T06:12:25.710Z,4
2022-11-25T06:13:25.956Z,4
2022-11-25T06:14:26.280Z,8
2022-11-25T06:15:26.161Z,8
2022-11-25T06:16:25.796Z,8
2022-11-25T06:17:25.859Z,12
2022-11-25T06:18:25.332Z,8
2022-11-25T06:19:25.833Z,12
2022-11-25T06:20:25.817Z,16
2022-11-25T06:21:25.858Z,16
2022-11-25T06:22:25.261Z,20
2022-11-25T06:23:25.751Z,24
2022-11-25T06:24:25.475Z,28
2022-11-25T06:25:25.855Z,32
2022-11-25T06:26:25.943Z,36
2022-11-25T06:27:27.887Z,40
2022-11-25T06:28:26.138Z,48
2022-11-25T06:29:25.524Z,56
2022-11-25T06:30:26.378Z,60
2022-11-25T06:31:26.494Z,72
2022-11-25T06:32:25.732Z,76
2022-11-25T06:33:25.964Z,88
2022-11-25T06:34:26.201Z,100
2022-11-25T06:35:26.178Z,112
2022-11-25T06:36:25.446Z,120
2022-11-25T06:37:25.629Z,136
2022-11-25T06:38:25.887Z,152
2022-11-25T06:39:25.852Z,164
2022-11-25T06:40:25.836Z,180
2022-11-25T06:41:26.067Z,188
2022-11-25T06:42:25.795Z,204
2022-11-25T06:43:25.269Z,216
2022-11-25T06:44:26.020Z,232
2022-11-25T06:45:25.740Z,244
2022-11-25T06:46:32.512Z,256
2022-11-25T06:47:25.699Z,272
2022-11-25T06:48:25.434Z,288
2022-11-25T06:49:25.410Z,312
2022-11-25T06:50:25.395Z,332
2022-11-25T06:51:25.626Z,352
2022-11-25T06:52:25.650Z,376
2022-11-25T06:53:30.620Z,396
2022-11-25T06:54:25.314Z,420
2022-11-25T06:55:25.844Z,440
2022-11-25T06:56:25.545Z,460
2022-11-25T06:57:25.513Z,480
2022-11-25T06:58:42.729Z,496
2022-11-25T06:59:24.961Z,508
2022-11-25T07:00:26.101Z,524
2022-11-25T07:01:26.435Z,532
2022-11-25T07:02:26.467Z,552
2022-11-25T07:03:25.864Z,564
2022-11-25T07:04:25.780Z,576
2022-11-25T07:05:25.496Z,592
2022-11-25T07:06:25.734Z,612
2022-11-25T07:07:25.681Z,624
2022-11-25T07:08:29.521Z,632
2022-11-25T07:09:25.935Z,652
2022-11-25T07:10:25.652Z,660
2022-11-25T07:11:25.638Z,684
2022-11-25T07:12:25.632Z,676
2022-11-25T07:13:26.383Z,752
2022-11-25T07:14:26.628Z,716
2022-11-25T07:15:26.094Z,740
2022-11-25T07:16:26.922Z,724
2022-11-25T07:17:26.387Z,728
2022-11-25T07:18:26.651Z,724
2022-11-25T07:19:26.277Z,780
2022-11-25T07:20:26.252Z,752
2022-11-25T07:21:26.136Z,752
2022-11-25T07:22:25.701Z,752
2022-11-25T07:23:25.947Z,776
2022-11-25T07:24:26.179Z,784
2022-11-25T07:25:32.799Z,832
2022-11-25T07:26:25.905Z,824
2022-11-25T07:27:26.126Z,824
2022-11-25T07:28:26.106Z,820
2022-11-25T07:31:27.011Z,876
2022-11-25T07:31:42.834Z,880
2022-11-25T07:32:41.574Z,888
2022-11-25T07:33:42.098Z,896
2022-11-25T07:34:41.280Z,904
2022-11-25T07:35:41.632Z,904
2022-11-25T07:36:41.492Z,912
2022-11-25T07:37:41.224Z,920
2022-11-25T07:38:48.734Z,932
2022-11-25T07:39:42.518Z,936
2022-11-25T07:40:41.672Z,952
2022-11-25T07:41:41.756Z,968
2022-11-25T07:42:41.125Z,984
2022-11-25T07:43:41.642Z,1008
2022-11-25T07:44:41.598Z,1032
2022-11-25T07:45:40.813Z,1060
2022-11-25T07:46:41.989Z,1084
2022-11-25T07:47:41.290Z,1096
2022-11-25T07:48:41.291Z,1104
2022-11-25T07:49:42.517Z,1124
2022-11-25T07:50:41.238Z,1144
2022-11-25T07:51:41.226Z,1164
2022-11-25T07:52:40.959Z,1176
2022-11-25T07:53:41.188Z,1188
2022-11-25T07:54:40.926Z,1204
2022-11-25T07:55:41.169Z,1216
2022-11-25T07:56:40.976Z,1228
2022-11-25T07:57:41.392Z,1236
2022-11-25T07:58:48.570Z,1252
2022-11-25T07:59:42.232Z,1260
2022-11-25T08:00:41.338Z,1272
2022-11-25T08:01:41.418Z,1288
2022-11-25T08:02:41.403Z,1300
2022-11-25T08:03:40.997Z,1316
2022-11-25T08:04:41.253Z,1336
2022-11-25T08:05:41.883Z,1344
2022-11-25T08:06:41.925Z,1360
2022-11-25T08:07:44.065Z,1380
2022-11-25T08:08:41.725Z,1396
2022-11-25T08:09:42.327Z,1404
2022-11-25T08:10:41.185Z,1412
2022-11-25T08:11:41.681Z,1424
2022-11-25T08:12:41.144Z,1432
2022-11-25T08:13:41.382Z,1440
2022-11-25T08:14:41.671Z,1444
2022-11-25T08:15:41.937Z,1456
2022-11-25T08:16:41.206Z,1456
2022-11-25T08:17:41.565Z,1468
2022-11-25T08:18:41.297Z,1468
2022-11-25T08:19:42.524Z,1468
2022-11-25T08:20:41.512Z,1472
2022-11-25T08:21:41.635Z,1480
2022-11-25T08:22:41.232Z,1488
2022-11-25T08:23:41.201Z,1488
2022-11-25T08:24:41.439Z,1516
2022-11-25T08:25:42.267Z,1532
2022-11-25T08:26:41.140Z,1564
2022-11-25T08:27:41.384Z,1576
2022-11-25T08:28:41.109Z,1584
2022-11-25T08:29:41.946Z,1596
2022-11-25T08:30:41.070Z,1612
2022-11-25T08:31:41.129Z,1616
2022-11-25T08:32:41.040Z,1608
2022-11-25T08:33:41.083Z,1608
2022-11-25T08:34:41.015Z,1604
2022-11-25T08:35:41.250Z,1604
2022-11-25T08:36:48.707Z,1596
2022-11-25T08:37:41.440Z,1596
2022-11-25T08:38:40.921Z,1588
2022-11-25T08:40:01.254Z,1592
2022-11-25T08:40:40.890Z,1592
2022-11-25T08:41:41.235Z,1584
2022-11-25T08:42:40.864Z,1592
2022-11-25T08:43:41.095Z,1592
2022-11-25T08:44:41.072Z,1552
2022-11-25T08:45:41.064Z,1536
2022-11-25T08:46:41.300Z,1536
2022-11-25T08:47:40.767Z,1560
2022-11-25T08:48:41.007Z,1564
2022-11-25T08:49:48.595Z,1564
2022-11-25T08:50:40.966Z,1572
2022-11-25T08:51:40.798Z,1580
2022-11-25T08:52:40.706Z,1608
2022-11-25T08:53:41.027Z,1632
2022-11-25T08:54:40.650Z,1652
2022-11-25T08:55:40.121Z,1696
2022-11-25T08:56:40.867Z,1724
2022-11-25T08:57:40.846Z,1772
2022-11-25T08:58:40.839Z,1788
2022-11-25T08:59:41.310Z,1816
2022-11-25T09:00:40.295Z,1836
2022-11-25T09:01:40.906Z,1864
2022-11-25T09:02:40.771Z,1916
2022-11-25T09:03:40.496Z,1960
2022-11-25T09:04:40.206Z,2012
2022-11-25T09:05:40.715Z,2024
2022-11-25T09:06:40.184Z,2036
2022-11-25T09:07:40.741Z,2036
2022-11-25T09:08:40.468Z,2020
2022-11-25T09:09:41.866Z,1988
2022-11-25T09:10:40.382Z,1988
2022-11-25T09:11:41.126Z,1980
2022-11-25T09:12:40.090Z,2008
2022-11-25T09:13:40.654Z,2016
2022-11-25T09:14:40.041Z,2028
2022-11-25T09:15:40.131Z,2016
2022-11-25T09:16:40.735Z,1992
2022-11-25T09:17:40.087Z,1944
2022-11-25T09:18:39.770Z,1888
2022-11-25T09:19:41.305Z,1840
2022-11-25T09:20:40.459Z,1812
2022-11-25T09:21:40.178Z,1776
2022-11-25T09:22:40.427Z,1740
2022-11-25T09:23:39.644Z,1720
2022-11-25T09:24:39.900Z,1716
2022-11-25T09:25:40.458Z,1720
2022-11-25T09:26:40.165Z,1720
2022-11-25T09:27:39.822Z,1732
2022-11-25T09:28:40.095Z,1736
2022-11-25T09:29:41.191Z,1716
2022-11-25T09:30:39.769Z,1700
2022-11-25T09:31:40.398Z,1720
2022-11-25T09:32:40.000Z,1700
2022-11-25T09:33:40.235Z,1744
2022-11-25T09:34:41.269Z,1928
2022-11-25T09:35:39.942Z,1896
2022-11-25T09:36:39.762Z,2092
2022-11-25T09:37:39.782Z,1876
2022-11-25T09:38:46.407Z,2140
2022-11-25T09:39:40.976Z,2152
2022-11-25T09:40:39.646Z,1856
2022-11-25T09:41:40.847Z,2096
2022-11-25T09:42:40.250Z,2340
2022-11-25T09:43:40.475Z,1964
2022-11-25T09:44:40.462Z,1896
2022-11-25T09:45:40.444Z,1912
2022-11-25T09:46:40.948Z,1944
2022-11-25T09:47:49.801Z,2004
2022-11-25T09:48:40.648Z,2052
2022-11-25T09:49:40.881Z,2132
2022-11-25T09:50:40.610Z,2236
2022-11-25T09:51:40.598Z,2344
2022-11-25T09:52:40.339Z,2464
2022-11-25T09:53:40.308Z,2580
2022-11-25T09:54:40.303Z,2688
2022-11-25T09:55:40.542Z,2796
2022-11-25T09:56:40.278Z,2880
2022-11-25T09:57:40.787Z,2972
2022-11-25T09:58:40.230Z,3044
2022-11-25T09:59:41.522Z,3100
2022-11-25T10:00:39.932Z,3148
2022-11-25T10:01:40.401Z,3184
2022-11-25T10:02:40.832Z,3208
2022-11-25T10:03:41.043Z,3216
2022-11-25T10:04:39.864Z,3220
2022-11-25T10:05:39.855Z,3228
2022-11-25T10:06:40.553Z,3224
2022-11-25T10:07:40.081Z,3232
2022-11-25T10:08:39.799Z,3288
2022-11-25T10:09:40.774Z,3404
2022-11-25T10:10:40.021Z,3348
2022-11-25T10:11:40.002Z,3368
2022-11-25T10:12:39.503Z,3412
2022-11-25T10:13:40.305Z,3428
2022-11-25T10:14:39.955Z,3492
2022-11-25T10:15:39.993Z,3520
2022-11-25T10:16:40.291Z,3464
2022-11-25T10:17:40.166Z,3352
2022-11-25T10:18:39.884Z,3200
2022-11-25T10:19:40.858Z,3048
2022-11-25T10:20:39.599Z,2896
2022-11-25T10:21:40.101Z,2708
2022-11-25T10:22:39.567Z,2608
2022-11-25T10:23:39.819Z,2544
2022-11-25T10:24:48.023Z,2504
2022-11-25T10:25:40.041Z,2460
2022-11-25T10:26:39.915Z,2420
2022-11-25T10:27:39.749Z,2404
2022-11-25T10:28:39.842Z,2440
2022-11-25T10:29:40.047Z,2508
2022-11-25T10:30:39.953Z,2596
2022-11-25T10:31:40.053Z,2688
2022-11-25T10:32:39.147Z,2776
2022-11-25T10:33:39.393Z,2808
2022-11-25T10:34:40.435Z,2832
2022-11-25T10:35:39.377Z,2848
2022-11-25T10:36:39.621Z,2868
2022-11-25T10:37:39.655Z,2880
2022-11-25T10:38:39.828Z,2888
2022-11-25T10:39:39.603Z,2892
2022-11-25T10:40:39.344Z,2896
2022-11-25T10:41:39.628Z,2920
2022-11-25T10:42:39.689Z,2960
2022-11-25T10:43:40.418Z,3016
2022-11-25T10:44:40.731Z,3084
2022-11-25T10:45:39.856Z,3164
2022-11-25T10:47:20.112Z,3312
2022-11-25T10:47:40.217Z,3348
2022-11-25T10:48:45.267Z,3484
2022-11-25T10:49:39.724Z,3604
2022-11-25T10:50:39.450Z,3744
2022-11-25T10:51:39.419Z,3884
2022-11-25T10:52:39.671Z,4008
2022-11-25T10:53:39.415Z,4124
2022-11-25T10:54:39.644Z,4224
2022-11-25T10:55:39.373Z,4312
2022-11-25T10:56:39.399Z,4384
2022-11-25T10:57:39.784Z,4464
2022-11-25T10:58:39.055Z,4500
2022-11-25T10:59:39.290Z,4524
2022-11-25T11:00:39.317Z,4580
2022-11-25T11:01:39.934Z,4616
2022-11-25T11:02:39.413Z,4628
2022-11-25T11:03:39.226Z,4644
2022-11-25T11:04:40.073Z,4644
2022-11-25T11:05:42.410Z,4640
2022-11-25T11:06:38.951Z,4612
2022-11-25T11:07:39.836Z,4592
2022-11-25T11:08:39.165Z,4600
2022-11-25T11:09:38.881Z,4636
2022-11-25T11:10:39.395Z,4684
2022-11-25T11:11:39.185Z,4728
2022-11-25T11:12:38.842Z,4772
2022-11-25T11:13:39.082Z,4808
2022-11-25T11:14:40.261Z,4836
2022-11-25T11:15:39.314Z,4832
2022-11-25T11:16:39.133Z,4828
2022-11-25T11:17:43.986Z,4780
2022-11-25T11:18:39.000Z,4708
2022-11-25T11:19:38.478Z,4624
2022-11-25T11:20:38.985Z,4560
2022-11-25T11:21:39.206Z,4496
2022-11-25T11:22:39.040Z,4460
2022-11-25T11:23:38.924Z,4432
2022-11-25T11:24:39.738Z,4404
2022-11-25T11:25:38.638Z,4360
2022-11-25T11:26:38.886Z,4344
2022-11-25T11:27:38.614Z,4372
2022-11-25T11:28:38.852Z,4412
2022-11-25T11:29:39.112Z,4496
2022-11-25T11:30:38.615Z,4552
2022-11-25T11:31:39.181Z,4656
2022-11-25T11:32:38.815Z,4796
2022-11-25T11:33:39.113Z,4928
2022-11-25T11:34:39.671Z,5016
2022-11-25T11:35:45.176Z,5032
2022-11-25T11:36:38.731Z,4960
2022-11-25T11:37:38.562Z,4776
2022-11-25T11:38:38.705Z,4512
2022-11-25T11:39:38.174Z,4168
2022-11-25T11:40:38.924Z,3684
2022-11-25T11:41:38.405Z,3300
2022-11-25T11:42:38.635Z,2980
2022-11-25T11:43:38.886Z,2684
2022-11-25T11:44:39.588Z,2440
2022-11-25T11:45:38.599Z,2228
2022-11-25T11:46:38.828Z,2020
2022-11-25T11:47:38.349Z,1900
2022-11-25T11:48:38.574Z,1816
2022-11-25T11:49:38.981Z,1780
2022-11-25T11:50:38.009Z,1784
2022-11-25T11:51:38.777Z,1840
2022-11-25T11:52:38.495Z,1920
2022-11-25T11:53:38.230Z,2016
2022-11-25T11:54:39.645Z,2120
2022-11-25T11:55:38.723Z,2240
2022-11-25T11:56:43.053Z,2316
2022-11-25T11:57:38.542Z,2372
2022-11-25T11:58:38.408Z,2432
2022-11-25T11:59:38.145Z,2440
2022-11-25T12:00:38.123Z,2504
2022-11-25T12:01:38.952Z,2544
2022-11-25T12:02:38.564Z,2572
2022-11-25T12:03:38.769Z,2580
2022-11-25T12:04:39.122Z,2572
2022-11-25T12:05:38.735Z,2568
2022-11-25T12:06:38.312Z,2532
2022-11-25T12:07:38.589Z,2488
2022-11-25T12:08:38.011Z,2428
2022-11-25T12:09:38.246Z,2352
2022-11-25T12:10:37.980Z,2304
2022-11-25T12:11:38.492Z,2340
2022-11-25T12:12:37.955Z,2320
2022-11-25T12:13:38.191Z,2248
2022-11-25T12:14:39.324Z,2148
2022-11-25T12:15:38.420Z,2064
2022-11-25T12:16:38.767Z,2000
2022-11-25T12:17:38.401Z,1992
2022-11-25T12:18:38.118Z,1908
2022-11-25T12:19:38.122Z,1876
2022-11-25T12:20:38.149Z,1860
2022-11-25T12:21:44.791Z,1808
2022-11-25T12:22:38.054Z,1792
2022-11-25T12:23:38.036Z,1772
2022-11-25T12:24:38.945Z,1748
2022-11-25T12:25:38.003Z,1748
2022-11-25T12:26:37.996Z,1784
2022-11-25T12:27:37.876Z,1804
2022-11-25T12:28:37.716Z,1828
2022-11-25T12:29:37.998Z,1856
2022-11-25T12:30:37.423Z,1868
2022-11-25T12:31:38.466Z,1880
2022-11-25T12:32:38.192Z,1892
2022-11-25T12:33:37.898Z,1908
2022-11-25T12:34:38.399Z,1932
2022-11-25T12:35:37.364Z,1968
2022-11-25T12:36:37.872Z,2020
2022-11-25T12:37:38.171Z,2092
2022-11-25T12:38:38.075Z,2176
2022-11-25T12:39:38.057Z,2272
2022-11-25T12:40:38.047Z,2384
2022-11-25T12:41:37.831Z,2508
2022-11-25T12:42:38.017Z,2632
2022-11-25T12:43:37.742Z,2744
2022-11-25T12:44:38.544Z,2860
2022-11-25T12:45:38.021Z,2988
2022-11-25T12:46:37.699Z,3096
2022-11-25T12:47:37.737Z,3152
2022-11-25T12:48:37.665Z,3136
2022-11-25T12:49:37.650Z,3112
2022-11-25T12:50:37.643Z,3104
2022-11-25T12:51:37.890Z,3104
2022-11-25T12:52:37.643Z,3104
2022-11-25T12:53:37.922Z,3140
2022-11-25T12:54:38.619Z,3240
2022-11-25T12:55:37.068Z,3332
2022-11-25T12:56:37.571Z,3412
2022-11-25T12:57:37.794Z,3476
2022-11-25T12:58:37.803Z,3548
2022-11-25T12:59:37.861Z,3544
2022-11-25T13:00:54.069Z,3372
2022-11-25T13:01:39.002Z,3232
2022-11-25T13:02:38.940Z,3060
2022-11-25T13:03:38.165Z,2856
2022-11-25T13:04:39.511Z,2728
2022-11-25T13:05:47.770Z,2576
2022-11-25T13:06:38.333Z,2532
2022-11-25T13:07:38.678Z,2444
2022-11-25T13:08:38.080Z,2372
2022-11-25T13:09:38.628Z,2316
2022-11-25T13:10:38.272Z,2364
2022-11-25T13:11:40.325Z,2356
2022-11-25T13:12:39.725Z,2376
2022-11-25T13:13:39.828Z,2500
2022-11-25T13:14:41.450Z,2576
2022-11-25T13:15:40.582Z,2680
2022-11-25T13:16:40.789Z,2832
2022-11-25T13:17:38.657Z,2900
2022-11-25T13:18:37.899Z,2832
2022-11-25T13:19:38.140Z,2660
2022-11-25T13:20:38.507Z,2528
2022-11-25T13:21:38.758Z,2412
2022-11-25T13:22:37.977Z,2292
2022-11-25T13:23:38.525Z,2172
2022-11-25T13:24:39.566Z,2044
2022-11-25T13:25:38.840Z,1912
2022-11-25T13:26:38.178Z,1816
2022-11-25T13:27:38.474Z,1724
2022-11-25T13:28:38.649Z,1628
2022-11-25T13:29:38.113Z,1516
2022-11-25T13:30:38.116Z,1428
2022-11-25T13:31:38.404Z,1352
2022-11-25T13:32:38.424Z,1280
2022-11-25T13:33:38.062Z,1244
2022-11-25T13:34:39.463Z,1220
2022-11-25T13:35:38.553Z,1220
2022-11-25T13:36:38.529Z,1228
2022-11-25T13:37:43.502Z,1256
2022-11-25T13:38:38.235Z,1284
2022-11-25T13:39:38.509Z,1316
2022-11-25T13:40:38.565Z,1352
2022-11-25T13:41:39.099Z,1376
2022-11-25T13:42:38.503Z,1396
2022-11-25T13:43:39.012Z,1400
2022-11-25T13:44:39.466Z,1392
2022-11-25T13:45:38.916Z,1380
2022-11-25T13:46:38.961Z,1372
2022-11-25T13:47:38.940Z,1336
2022-11-25T13:48:38.662Z,1280
2022-11-25T13:49:38.917Z,1216
2022-11-25T13:51:16.078Z,1152
2022-11-25T13:51:38.902Z,1140
2022-11-25T13:52:38.862Z,1124
2022-11-25T13:53:38.873Z,1112
2022-11-25T13:54:39.725Z,1096
2022-11-25T13:55:38.835Z,1088
2022-11-25T13:56:38.322Z,1072
2022-11-25T13:57:38.917Z,1056
2022-11-25T13:58:38.792Z,1036
2022-11-25T13:59:39.497Z,1028
2022-11-25T14:00:38.520Z,1008
2022-11-25T14:01:38.505Z,992
2022-11-25T14:02:39.338Z,1004
2022-11-25T14:03:38.579Z,1056
2022-11-25T14:04:40.177Z,1128
2022-11-25T14:05:38.413Z,1200
2022-11-25T14:06:38.145Z,1232
2022-11-25T14:07:38.509Z,1228
2022-11-25T14:08:38.361Z,1184
2022-11-25T14:09:39.287Z,1120
2022-11-25T14:10:38.635Z,1064
2022-11-25T14:11:38.342Z,1024
2022-11-25T14:12:38.480Z,1004
2022-11-25T14:13:38.620Z,992
2022-11-25T14:14:38.532Z,992
2022-11-25T14:15:38.261Z,1020